Taos, NM

4:06 AM MST on January 31, 2015 (GMT -0700)
Las Vegas Municipal | Change Station
CLOSE
Current Station
Airport
Location: Las Vegas,
Elevation: 6877 ft
Nearby Weather Stations
Active Advisory: Winter Storm Warning

Elev 6877 ft 35.65 °N, 105.14 °W | Updated 13 minutes ago

Overcast
Overcast
26 °F
Feels Like 18 °F
N
8
Wind Variable Wind from SSW

Today
High -- | Low -- °F
--% Chance of Precip.
Yesterday
High -- | Low -- °F
Precip. -- in
7:04 AM 5:27 PM
Waxing Gibbous, 89% visible
Pressure 29.97 in
Visibility 10.0 miles
Clouds Overcast 1700 ft
Windchill 18 °F
Dew Point 25 °F
Humidity 96%
Rainfall 0.01 in
Snow Depth Not available.
UV 0 out of 12
Pollen 1.30 out of 12
Air Quality Not available.
Flu Activity Not available.
METAR KLVS 311053Z AUTO 20007KT 10SM OVC017 M03/M04 A2995 RMK AO2 SNE40 SLP148 P0000 T10331039

More Conditions Fewer Conditions

Pressure 29.97 in
Visibility 10.0 miles
Clouds Overcast 1700 ft
Windchill 18 °F
Dew Point 25 °F
Humidity 96%
Rainfall 0.01 in
Snow Depth Not available.
UV 0 out of 12
Pollen 1.30 out of 12
Air Quality Not available.
Flu Activity Not available.
METAR KLVS 311053Z AUTO 20007KT 10SM OVC017 M03/M04 A2995 RMK AO2 SNE40 SLP148 P0000 T10331039

More Conditions Fewer Conditions

Nowcast | as of 3:58 am MST on January 31, 2015

Light to moderate rain and snow will continue across central New Mexico through the overnight hours. Roads impacted will include Interstate 25 from La Bajada Hill to the Colorado border and Highway 285 from Clines Corners to the Colorado border. Expect 1 to 2 inches of additional snow accumulation...under 1 inch below 7000 feet. In addition to the snow...patchy fog will reduce visibilities below a half mile at times...including places like Raton and Ruidoso. For the latest Road conditions visit N M roads dot com or dial 5 1 1.

×

10-Day Weather Forecast

Almanac

Astronomy

Jan. 31, 2015 Rise Set
Actual Time
Civil Twilight
Nautical Twilight
Astronomical Twilight
Moon
Length of Visible Light
Length of Day
Tomorrow will be .
, % of the Moon is Illuminated

Today's Extremes

State Highs State Lows

Community

WunderPhotos

Upload Photos

1,792,031 photos uploaded!

WunderBlogs® & News

Nearby

Air Quality

  Air Quality AQ Index Pollutant
Not available.

Snow Depth

Station Depth Elevation

Earthquake Activity

City Distance Mag. Time & Date
Minimum magnitude displayed is 2.5.

Coastal Water Temperatures

Place Temperature

Nearby Weather Stations